Vulcan, Canada
Current Conditions -  °F | °C
As of 12:00 AM on Sunday 26 Oct 2014 (Local Time) from CYQL Reporting Station
Clear Clear  
Wind Chill: 39°   Ceiling: Unl
Heat Index: 46°   Visibility: 9mi
Dew Point: 37°   Wind: 18mph
Humidity: 71%   Direction: 210°SSW
Pressure: 29.48"   Gusts: NA
Location:  50.4°N, 113.25°W
Report Text: CYQL 260600Z AUTO 21016KT 9SM CLR 08/03 A2948 RMK SLP995 DENSITY ALT 3400FT
Loading
Personal Weather Stations






























Interactive Weather Map New forecast layout! Learn more

10-Day Weather Forecast

Advertisements
Track Severe Weather on mobile